createdAt,value
2023-04-22T00:01:06.805Z,86.10
2023-04-22T00:03:34.216Z,86.10
2023-04-22T00:06:01.594Z,86.10
2023-04-22T00:08:28.621Z,86.40
2023-04-22T00:10:56.611Z,86.50
2023-04-22T00:13:23.526Z,86.50
2023-04-22T00:15:51.226Z,86.50
2023-04-22T00:18:18.303Z,86.50
2023-04-22T00:20:45.709Z,86.80
2023-04-22T00:23:13.501Z,86.70
2023-04-22T00:25:40.904Z,86.90
2023-04-22T00:28:07.938Z,87.00
2023-04-22T00:30:36.127Z,87.20
2023-04-22T00:33:03.090Z,87.40
2023-04-22T00:35:30.141Z,87.50
2023-04-22T00:37:57.048Z,87.80
2023-04-22T00:40:23.999Z,88.10
2023-04-22T00:42:51.331Z,88.20
2023-04-22T00:45:19.962Z,88.40
2023-04-22T00:47:48.435Z,88.50
2023-04-22T00:50:16.222Z,88.50
2023-04-22T00:52:43.171Z,88.60
2023-04-22T00:55:11.287Z,88.80
2023-04-22T00:57:39.478Z,89.00
2023-04-22T01:00:09.815Z,88.90
2023-04-22T01:02:38.795Z,89.00
2023-04-22T01:05:08.486Z,89.20
2023-04-22T01:07:36.492Z,89.40
2023-04-22T01:10:04.832Z,90.00
2023-04-22T01:12:31.767Z,90.20
2023-04-22T01:14:58.691Z,90.20
2023-04-22T01:17:25.813Z,90.30
2023-04-22T01:19:53.347Z,90.40
2023-04-22T01:22:21.426Z,90.30
2023-04-22T01:24:49.170Z,90.40
2023-04-22T01:27:16.188Z,90.30
2023-04-22T01:29:43.529Z,90.50
2023-04-22T01:32:11.017Z,90.20
2023-04-22T01:34:38.099Z,90.30
2023-04-22T01:37:06.559Z,90.40
2023-04-22T01:39:33.713Z,90.30
2023-04-22T01:42:02.111Z,90.50
2023-04-22T01:44:29.165Z,90.50
2023-04-22T01:46:56.310Z,90.60
2023-04-22T01:49:23.216Z,90.40
2023-04-22T01:51:51.054Z,90.40
2023-04-22T01:54:19.238Z,90.40
2023-04-22T01:56:54.604Z,90.60
2023-04-22T01:59:22.180Z,90.50
2023-04-22T02:01:50.432Z,90.40
2023-04-22T02:04:18.421Z,90.50
2023-04-22T02:06:45.469Z,90.70
2023-04-22T02:09:12.403Z,90.60
2023-04-22T02:11:39.275Z,90.60
2023-04-22T02:14:06.667Z,90.70
2023-04-22T02:16:33.697Z,90.70
2023-04-22T02:19:00.691Z,90.80
2023-04-22T02:21:32.579Z,91.00
2023-04-22T02:23:59.502Z,91.10
2023-04-22T02:26:28.728Z,91.10
2023-04-22T02:28:55.635Z,91.20
2023-04-22T02:31:22.572Z,91.00
2023-04-22T02:33:49.740Z,91.00
2023-04-22T02:36:17.085Z,91.10
2023-04-22T02:38:44.015Z,91.10
2023-04-22T02:41:11.348Z,91.10
2023-04-22T02:43:38.273Z,91.30
2023-04-22T02:46:05.244Z,91.30
2023-04-22T02:48:32.210Z,91.20
2023-04-22T02:50:59.097Z,91.10
2023-04-22T02:53:26.024Z,91.10
2023-04-22T02:55:55.616Z,91.10
2023-04-22T02:58:22.576Z,91.20
2023-04-22T03:00:49.546Z,91.30
2023-04-22T03:03:16.700Z,91.40
2023-04-22T03:05:43.745Z,91.50
2023-04-22T03:08:10.960Z,91.40
2023-04-22T03:10:37.880Z,91.40
2023-04-22T03:13:04.818Z,91.40
2023-04-22T03:15:31.898Z,91.30
2023-04-22T03:17:58.814Z,91.30
2023-04-22T03:20:26.146Z,91.30
2023-04-22T03:22:54.079Z,91.30
2023-04-22T03:25:21.750Z,91.40
2023-04-22T03:27:54.890Z,91.50
2023-04-22T03:30:21.918Z,91.40
2023-04-22T03:32:49.037Z,91.60
2023-04-22T03:35:22.144Z,91.60
2023-04-22T03:37:51.178Z,91.50
2023-04-22T03:40:23.490Z,91.60
2023-04-22T03:42:50.450Z,91.60
2023-04-22T03:45:19.843Z,91.50
2023-04-22T03:47:53.809Z,91.40
2023-04-22T03:50:26.527Z,91.30
2023-04-22T03:52:54.523Z,91.50
2023-04-22T03:55:21.740Z,91.60
2023-04-22T03:57:51.773Z,91.60
2023-04-22T04:00:19.483Z,91.60
2023-04-22T04:02:52.664Z,91.60
2023-04-22T04:05:24.597Z,91.80
2023-04-22T04:07:51.593Z,91.80
2023-04-22T04:10:18.515Z,91.80
2023-04-22T04:12:45.975Z,92.00
2023-04-22T04:15:12.989Z,92.00
2023-04-22T04:17:40.622Z,92.10
2023-04-22T04:20:08.818Z,92.20
2023-04-22T04:22:36.588Z,92.40
2023-04-22T04:25:07.049Z,92.30
2023-04-22T04:27:41.527Z,92.50
2023-04-22T04:30:11.300Z,92.40
2023-04-22T04:32:43.033Z,92.50
2023-04-22T04:35:15.278Z,92.50
2023-04-22T04:37:47.304Z,92.40
2023-04-22T04:40:15.134Z,92.40
2023-04-22T04:42:55.697Z,92.40
2023-04-22T04:45:26.539Z,92.40
2023-04-22T04:47:54.907Z,92.40
2023-04-22T04:50:30.358Z,92.30
2023-04-22T04:53:01.521Z,92.30
2023-04-22T04:55:34.860Z,92.20
2023-04-22T04:58:06.754Z,92.20
2023-04-22T05:00:33.662Z,92.20
2023-04-22T05:03:01.172Z,92.10
2023-04-22T05:05:29.686Z,92.10
2023-04-22T05:07:57.417Z,91.90
2023-04-22T05:10:27.187Z,91.70
2023-04-22T05:12:54.567Z,91.70
2023-04-22T05:15:24.280Z,91.80
2023-04-22T05:17:51.691Z,91.70
2023-04-22T05:20:18.678Z,91.70
2023-04-22T05:22:45.958Z,91.70
2023-04-22T05:25:14.058Z,91.80
2023-04-22T05:27:49.019Z,91.90
2023-04-22T05:30:18.467Z,91.90
2023-04-22T05:32:45.571Z,92.00
2023-04-22T05:35:12.605Z,92.00
2023-04-22T05:37:41.101Z,92.00
2023-04-22T05:40:08.793Z,91.90
2023-04-22T05:42:35.846Z,92.00
2023-04-22T05:45:03.045Z,92.00
2023-04-22T05:47:30.730Z,92.30
2023-04-22T05:49:58.138Z,92.00
2023-04-22T05:52:34.239Z,92.00
2023-04-22T05:55:09.540Z,92.10
2023-04-22T05:57:36.477Z,92.20
2023-04-22T06:00:09.718Z,92.10
2023-04-22T06:02:49.683Z,92.10
2023-04-22T06:05:17.954Z,92.00
2023-04-22T06:07:44.944Z,91.90
2023-04-22T06:10:11.931Z,91.90
2023-04-22T06:12:38.867Z,91.90
2023-04-22T06:15:06.622Z,91.80
2023-04-22T06:17:33.628Z,91.80
2023-04-22T06:20:00.799Z,91.60
2023-04-22T06:22:27.818Z,91.60
2023-04-22T06:24:54.742Z,91.50
2023-04-22T06:27:21.680Z,91.50
2023-04-22T06:29:48.600Z,91.60
2023-04-22T06:32:15.947Z,91.30
2023-04-22T06:34:42.905Z,91.20
2023-04-22T06:37:09.884Z,91.20
2023-04-22T06:39:36.920Z,91.00
2023-04-22T06:42:22.262Z,90.90
2023-04-22T06:45:12.623Z,90.10
2023-04-22T06:47:48.424Z,90.00
2023-04-22T06:50:20.141Z,89.40
2023-04-22T06:53:06.825Z,89.10
2023-04-22T06:55:35.716Z,88.90
2023-04-22T06:58:02.751Z,88.00
2023-04-22T07:00:29.727Z,87.30
2023-04-22T07:02:58.634Z,86.00
2023-04-22T07:05:25.689Z,86.10
2023-04-22T07:07:52.924Z,86.00
2023-04-22T07:10:22.642Z,84.60
2023-04-22T07:13:18.287Z,84.90
2023-04-22T07:15:46.330Z,81.50
2023-04-22T07:18:13.242Z,80.70
2023-04-22T07:20:40.268Z,81.30
2023-04-22T07:23:07.143Z,81.30
2023-04-22T07:25:34.130Z,81.90
2023-04-22T07:28:01.038Z,80.80
2023-04-22T07:30:28.066Z,81.30
2023-04-22T07:32:55.462Z,77.50
2023-04-22T07:35:22.390Z,75.80
2023-04-22T07:37:49.264Z,73.50
2023-04-22T07:40:16.382Z,73.50
2023-04-22T07:42:43.271Z,72.20
2023-04-22T07:45:10.365Z,71.70
2023-04-22T07:47:37.278Z,71.70
2023-04-22T07:50:04.806Z,71.60
2023-04-22T07:52:31.802Z,71.90
2023-04-22T07:54:58.711Z,72.10
2023-04-22T07:57:25.874Z,71.40
2023-04-22T07:59:53.119Z,71.30
2023-04-22T08:02:20.176Z,71.10
2023-04-22T08:04:47.194Z,70.00
2023-04-22T08:07:30.947Z,69.70
2023-04-22T08:10:00.274Z,69.10
2023-04-22T08:12:27.213Z,68.50
2023-04-22T08:14:54.339Z,68.40
2023-04-22T08:17:22.252Z,67.90
2023-04-22T08:19:49.947Z,67.90
2023-04-22T08:22:18.531Z,69.20
2023-04-22T08:24:45.422Z,68.30
2023-04-22T08:27:12.351Z,67.40
2023-04-22T08:29:39.524Z,67.70
2023-04-22T08:32:06.661Z,66.40
2023-04-22T08:34:33.699Z,65.60
2023-04-22T08:37:00.574Z,65.50
2023-04-22T08:39:27.487Z,65.50
2023-04-22T08:41:56.237Z,66.20
2023-04-22T08:44:23.457Z,65.10
2023-04-22T08:46:51.614Z,64.50
2023-04-22T08:49:19.346Z,63.70
2023-04-22T08:51:46.406Z,64.10
2023-04-22T08:54:13.333Z,63.00
2023-04-22T08:56:44.274Z,61.40
2023-04-22T08:59:12.679Z,61.70
2023-04-22T09:01:41.506Z,61.40
2023-04-22T09:04:11.450Z,61.50
2023-04-22T09:06:39.349Z,62.20
2023-04-22T09:09:08.751Z,61.40
2023-04-22T09:11:36.331Z,60.40
2023-04-22T09:14:06.749Z,60.40
2023-04-22T09:16:34.511Z,59.50
2023-04-22T09:19:01.625Z,59.80
2023-04-22T09:21:29.052Z,60.20
2023-04-22T09:23:56.891Z,59.40
2023-04-22T09:26:26.288Z,59.30
2023-04-22T09:28:58.844Z,59.00
2023-04-22T09:31:28.364Z,58.80
2023-04-22T09:33:59.427Z,58.70
2023-04-22T09:36:30.599Z,59.50
2023-04-22T09:38:59.495Z,59.10
2023-04-22T09:41:38.745Z,59.10
2023-04-22T09:44:11.500Z,58.10
2023-04-22T09:46:38.382Z,57.50
2023-04-22T09:49:05.715Z,58.30
2023-04-22T09:51:32.591Z,58.80
2023-04-22T09:54:06.427Z,59.10
2023-04-22T09:56:52.675Z,58.40
2023-04-22T09:59:28.684Z,58.40
2023-04-22T10:02:00.284Z,58.50
2023-04-22T10:04:28.283Z,57.70
2023-04-22T10:06:55.598Z,56.80
2023-04-22T10:09:25.389Z,56.80
2023-04-22T10:11:55.145Z,57.50
2023-04-22T10:14:23.179Z,57.00
2023-04-22T10:16:54.500Z,57.00
2023-04-22T10:19:23.900Z,58.00
2023-04-22T10:22:00.720Z,58.00
2023-04-22T10:24:28.998Z,56.20
2023-04-22T10:27:06.402Z,56.20
2023-04-22T10:29:39.509Z,55.00
2023-04-22T10:32:25.947Z,55.40
2023-04-22T10:35:10.362Z,55.80
2023-04-22T10:37:39.943Z,55.80
2023-04-22T10:40:17.647Z,53.60
2023-04-22T10:42:52.276Z,55.00
2023-04-22T10:45:20.109Z,54.20
2023-04-22T10:47:47.075Z,53.70
2023-04-22T10:50:20.638Z,53.60
2023-04-22T10:52:57.291Z,54.40
2023-04-22T10:55:26.037Z,53.90
2023-04-22T10:57:54.108Z,53.30
2023-04-22T11:00:52.412Z,53.70
2023-04-22T11:03:28.596Z,52.50
2023-04-22T11:06:22.501Z,53.00
2023-04-22T11:08:51.147Z,53.20
2023-04-22T11:11:19.033Z,53.30
2023-04-22T11:13:50.510Z,53.90
2023-04-22T11:16:18.799Z,53.00
2023-04-22T11:18:47.886Z,52.70
2023-04-22T11:21:15.022Z,52.70
2023-04-22T11:23:53.349Z,53.00
2023-04-22T11:26:35.080Z,53.90
2023-04-22T11:29:01.968Z,53.20
2023-04-22T11:31:28.914Z,53.20
2023-04-22T11:34:00.286Z,53.00
2023-04-22T11:36:27.701Z,53.50
2023-04-22T11:38:56.319Z,52.50
2023-04-22T11:41:23.741Z,52.90
2023-04-22T11:43:50.610Z,52.10
2023-04-22T11:46:28.088Z,52.50
2023-04-22T11:48:55.002Z,51.90
2023-04-22T11:51:21.906Z,51.50
2023-04-22T11:53:51.926Z,51.20
2023-04-22T11:56:18.810Z,51.90
2023-04-22T11:58:45.699Z,51.60
2023-04-22T12:01:13.982Z,51.90
2023-04-22T12:03:40.948Z,51.50
2023-04-22T12:06:08.037Z,51.20
2023-04-22T12:08:40.203Z,49.70
2023-04-22T12:11:10.489Z,50.00
2023-04-22T12:13:37.220Z,50.30
2023-04-22T12:16:06.618Z,50.50
2023-04-22T12:18:39.783Z,50.60
2023-04-22T12:21:15.013Z,50.00
2023-04-22T12:23:54.624Z,50.30
2023-04-22T12:26:26.892Z,49.70
2023-04-22T12:28:55.901Z,49.60
2023-04-22T12:31:22.994Z,49.50
2023-04-22T12:33:50.328Z,49.60
2023-04-22T12:36:20.824Z,48.50
2023-04-22T12:38:48.077Z,47.30
2023-04-22T12:41:16.077Z,47.40
2023-04-22T12:43:43.003Z,47.30
2023-04-22T12:46:10.430Z,46.50
2023-04-22T12:48:37.765Z,47.20
2023-04-22T12:51:06.572Z,46.60
2023-04-22T12:53:33.561Z,47.60
2023-04-22T12:56:00.528Z,47.80
2023-04-22T12:58:27.447Z,46.40
2023-04-22T13:00:54.369Z,47.00
2023-04-22T13:03:21.344Z,46.80
2023-04-22T13:05:48.469Z,46.60
2023-04-22T13:08:15.374Z,46.40
2023-04-22T13:10:42.336Z,46.10
2023-04-22T13:13:18.494Z,45.60
2023-04-22T13:15:53.800Z,46.20
2023-04-22T13:18:22.809Z,46.30
2023-04-22T13:20:49.739Z,47.10
2023-04-22T13:23:17.174Z,45.70
2023-04-22T13:25:44.325Z,46.50
2023-04-22T13:28:11.768Z,46.40
2023-04-22T13:30:39.481Z,45.50
2023-04-22T13:33:06.417Z,46.40
2023-04-22T13:35:33.397Z,45.90
2023-04-22T13:38:01.345Z,45.60
2023-04-22T13:40:28.576Z,46.50
2023-04-22T13:42:55.881Z,46.50
2023-04-22T13:45:22.832Z,46.40
2023-04-22T13:47:49.774Z,46.10
2023-04-22T13:50:16.762Z,45.50
2023-04-22T13:52:43.956Z,45.40
2023-04-22T13:55:11.027Z,45.60
2023-04-22T13:57:37.974Z,45.40
2023-04-22T14:00:05.542Z,45.70
2023-04-22T14:02:38.701Z,45.50
2023-04-22T14:05:06.264Z,45.20
2023-04-22T14:07:33.207Z,45.00
2023-04-22T14:10:00.138Z,45.20
2023-04-22T14:12:27.177Z,45.30
2023-04-22T14:14:54.070Z,46.20
2023-04-22T14:17:22.538Z,45.60
2023-04-22T14:19:49.495Z,45.90
2023-04-22T14:22:16.377Z,45.70
2023-04-22T14:24:43.276Z,46.10
2023-04-22T14:27:11.892Z,46.10
2023-04-22T14:29:39.632Z,45.60
2023-04-22T14:32:06.818Z,45.60
2023-04-22T14:34:33.765Z,45.40
2023-04-22T14:37:00.677Z,45.50
2023-04-22T14:39:27.573Z,46.00
2023-04-22T14:41:54.472Z,46.10
2023-04-22T14:44:21.593Z,46.00
2023-04-22T14:46:48.469Z,45.70
2023-04-22T14:49:15.561Z,46.10
2023-04-22T14:51:42.446Z,46.10
2023-04-22T14:54:09.331Z,45.60
2023-04-22T14:56:36.487Z,45.70
2023-04-22T14:59:03.371Z,45.70
2023-04-22T15:01:31.393Z,46.00
2023-04-22T15:03:58.729Z,45.80
2023-04-22T15:06:26.912Z,45.90
2023-04-22T15:08:54.014Z,46.60
2023-04-22T15:11:20.921Z,46.90
2023-04-22T15:13:47.818Z,46.60
2023-04-22T15:16:14.851Z,47.10
2023-04-22T15:18:41.879Z,46.80
2023-04-22T15:21:10.513Z,46.20
2023-04-22T15:23:37.452Z,46.10
2023-04-22T15:26:04.391Z,46.70
2023-04-22T15:28:31.352Z,46.90
2023-04-22T15:30:58.251Z,47.10
2023-04-22T15:33:25.181Z,46.70
2023-04-22T15:35:52.073Z,47.00
2023-04-22T15:38:19.257Z,46.90
2023-04-22T15:40:46.168Z,47.40
2023-04-22T15:43:13.082Z,47.50
2023-04-22T15:45:40.016Z,48.00
2023-04-22T15:48:07.035Z,47.80
2023-04-22T15:50:34.075Z,47.60
2023-04-22T15:53:00.960Z,47.80
2023-04-22T15:55:27.859Z,48.30
2023-04-22T15:57:54.758Z,47.90
2023-04-22T16:00:21.725Z,47.30
2023-04-22T16:02:55.309Z,47.10
2023-04-22T16:05:24.688Z,46.40
2023-04-22T16:07:53.073Z,46.30
2023-04-22T16:10:20.822Z,46.80
2023-04-22T16:12:47.918Z,47.00
2023-04-22T16:15:14.856Z,47.50
2023-04-22T16:17:43.651Z,47.70
2023-04-22T16:20:10.958Z,48.10
2023-04-22T16:22:37.847Z,48.30
2023-04-22T16:25:05.704Z,47.80
2023-04-22T16:27:32.629Z,48.20
2023-04-22T16:29:59.717Z,47.50
2023-04-22T16:32:26.766Z,47.80
2023-04-22T16:34:53.697Z,48.10
2023-04-22T16:37:20.580Z,48.40
2023-04-22T16:39:47.499Z,48.80
2023-04-22T16:42:14.439Z,48.90
2023-04-22T16:44:41.350Z,48.30
2023-04-22T16:47:08.310Z,48.40
2023-04-22T16:49:35.588Z,47.90
2023-04-22T16:52:02.535Z,47.50
2023-04-22T16:54:29.582Z,47.60
2023-04-22T16:56:57.498Z,47.70
2023-04-22T16:59:24.476Z,47.40
2023-04-22T17:01:51.811Z,47.30
2023-04-22T17:04:18.965Z,47.30
2023-04-22T17:06:46.101Z,47.50
2023-04-22T17:09:12.991Z,46.90
2023-04-22T17:11:39.886Z,46.90
2023-04-22T17:14:06.777Z,47.10
2023-04-22T17:16:33.735Z,47.10
2023-04-22T17:19:00.869Z,47.10
2023-04-22T17:21:28.746Z,47.30
2023-04-22T17:23:55.875Z,47.40
2023-04-22T17:26:22.756Z,47.50
2023-04-22T17:28:49.646Z,47.80
2023-04-22T17:31:16.534Z,48.00
2023-04-22T17:33:43.705Z,48.30
2023-04-22T17:36:10.620Z,48.40
2023-04-22T17:38:37.528Z,48.70
2023-04-22T17:41:04.676Z,49.00
2023-04-22T17:43:31.554Z,49.10
2023-04-22T17:45:58.492Z,49.30
2023-04-22T17:48:25.532Z,49.40
2023-04-22T17:50:52.670Z,49.70
2023-04-22T17:53:19.568Z,50.00
2023-04-22T17:55:46.461Z,50.00
2023-04-22T17:58:13.335Z,50.20
2023-04-22T18:00:40.541Z,50.50
2023-04-22T18:03:07.634Z,50.60
2023-04-22T18:05:34.708Z,50.90
2023-04-22T18:08:02.824Z,51.10
2023-04-22T18:10:30.634Z,51.30
2023-04-22T18:12:57.593Z,51.40
2023-04-22T18:15:24.533Z,51.50
2023-04-22T18:17:51.682Z,51.70
2023-04-22T18:20:19.747Z,51.90
2023-04-22T18:22:49.267Z,52.10
2023-04-22T18:25:16.336Z,52.30
2023-04-22T18:27:43.616Z,52.40
2023-04-22T18:30:10.968Z,52.50
2023-04-22T18:32:38.059Z,52.70
2023-04-22T18:35:05.703Z,52.90
2023-04-22T18:37:34.562Z,53.10
2023-04-22T18:40:02.258Z,53.30
2023-04-22T18:42:29.218Z,53.30
2023-04-22T18:44:56.093Z,53.50
2023-04-22T18:47:23.086Z,53.70
2023-04-22T18:49:50.062Z,53.80
2023-04-22T18:52:17.263Z,54.20
2023-04-22T18:54:44.389Z,54.10
2023-04-22T18:57:11.264Z,54.20
2023-04-22T18:59:38.305Z,54.40
2023-04-22T19:02:06.331Z,54.70
2023-04-22T19:04:33.383Z,54.80
2023-04-22T19:07:00.889Z,54.80
2023-04-22T19:09:27.848Z,55.00
2023-04-22T19:11:55.319Z,55.00
2023-04-22T19:14:22.274Z,55.20
2023-04-22T19:16:49.146Z,55.30
2023-04-22T19:19:16.171Z,55.30
2023-04-22T19:21:43.198Z,55.60
2023-04-22T19:24:10.215Z,55.60
2023-04-22T19:26:37.132Z,55.70
2023-04-22T19:29:04.221Z,55.80
2023-04-22T19:31:31.465Z,56.00
2023-04-22T19:33:59.243Z,56.20
2023-04-22T19:36:26.920Z,56.40
2023-04-22T19:38:53.828Z,56.80
2023-04-22T19:41:20.713Z,56.80
2023-04-22T19:43:47.597Z,56.80
2023-04-22T19:46:14.468Z,56.70
2023-04-22T19:48:41.579Z,56.80
2023-04-22T19:51:10.032Z,56.90
2023-04-22T19:53:39.046Z,56.90
2023-04-22T19:56:06.209Z,57.00
2023-04-22T19:58:33.279Z,57.00
2023-04-22T20:01:00.362Z,57.30
2023-04-22T20:03:27.858Z,57.40
2023-04-22T20:05:55.137Z,57.40
2023-04-22T20:08:27.477Z,57.40
2023-04-22T20:10:55.249Z,57.60
2023-04-22T20:13:22.805Z,57.60
2023-04-22T20:15:50.185Z,57.80
2023-04-22T20:18:17.676Z,57.90
2023-04-22T20:20:47.924Z,58.00
2023-04-22T20:23:16.794Z,58.00
2023-04-22T20:25:44.720Z,58.20
2023-04-22T20:28:11.942Z,58.20
2023-04-22T20:30:39.284Z,58.30
2023-04-22T20:33:06.389Z,58.40
2023-04-22T20:35:35.801Z,58.20
2023-04-22T20:38:03.709Z,58.40
2023-04-22T20:40:31.029Z,58.40
2023-04-22T20:42:58.862Z,58.40
2023-04-22T20:45:27.171Z,58.50
2023-04-22T20:47:54.181Z,58.50
2023-04-22T20:50:21.166Z,58.60
2023-04-22T20:52:49.062Z,58.60
2023-04-22T20:55:17.016Z,58.60
2023-04-22T20:57:44.888Z,58.60
2023-04-22T21:00:12.330Z,58.70
2023-04-22T21:02:40.109Z,58.60
2023-04-22T21:05:07.814Z,58.50
2023-04-22T21:07:38.972Z,58.50
2023-04-22T21:10:07.386Z,58.60
2023-04-22T21:12:34.616Z,58.70
2023-04-22T21:15:01.919Z,58.70
2023-04-22T21:17:31.802Z,58.80
2023-04-22T21:19:59.215Z,58.80
2023-04-22T21:22:26.320Z,58.90
2023-04-22T21:24:54.091Z,58.80
2023-04-22T21:27:22.509Z,58.70
2023-04-22T21:29:50.190Z,58.60
2023-04-22T21:32:20.048Z,58.60
2023-04-22T21:34:47.023Z,58.70
2023-04-22T21:37:13.919Z,58.70
2023-04-22T21:39:41.218Z,58.80
2023-04-22T21:42:08.798Z,58.80
2023-04-22T21:44:37.112Z,58.70
2023-04-22T21:47:04.728Z,58.60
2023-04-22T21:49:31.752Z,58.70
2023-04-22T21:51:59.023Z,58.50
2023-04-22T21:54:25.937Z,58.50
2023-04-22T21:56:53.077Z,58.50
2023-04-22T21:59:19.995Z,58.60
2023-04-22T22:01:46.938Z,58.50
2023-04-22T22:04:15.921Z,58.60
2023-04-22T22:06:45.245Z,58.60
2023-04-22T22:09:14.250Z,58.60
2023-04-22T22:11:41.129Z,58.60
2023-04-22T22:14:08.043Z,58.60
2023-04-22T22:16:34.989Z,58.60
2023-04-22T22:19:04.472Z,58.70
2023-04-22T22:21:32.748Z,58.80
2023-04-22T22:23:59.766Z,58.90
2023-04-22T22:26:27.819Z,58.90
2023-04-22T22:28:55.061Z,59.00
2023-04-22T22:31:21.969Z,58.90
2023-04-22T22:33:48.982Z,58.90
2023-04-22T22:36:16.224Z,59.10
2023-04-22T22:38:43.210Z,59.10
2023-04-22T22:41:10.138Z,59.10
2023-04-22T22:43:37.064Z,59.10
2023-04-22T22:46:04.072Z,59.10
2023-04-22T22:48:31.146Z,59.20
2023-04-22T22:50:58.051Z,59.30
2023-04-22T22:53:24.949Z,59.50
2023-04-22T22:55:51.831Z,59.40
2023-04-22T22:58:18.720Z,59.50
2023-04-22T23:00:45.691Z,59.50
2023-04-22T23:03:12.897Z,59.50
2023-04-22T23:05:39.917Z,59.60
2023-04-22T23:08:07.122Z,59.50
2023-04-22T23:10:33.993Z,59.50
2023-04-22T23:13:01.122Z,59.50
2023-04-22T23:15:28.007Z,59.60
2023-04-22T23:17:54.949Z,59.60
2023-04-22T23:20:23.737Z,59.70
2023-04-22T23:22:51.352Z,59.80
2023-04-22T23:25:18.469Z,59.70
2023-04-22T23:27:45.622Z,59.70
2023-04-22T23:30:13.080Z,59.80
2023-04-22T23:32:41.060Z,60.00
2023-04-22T23:35:11.521Z,59.90
2023-04-22T23:37:43.782Z,60.00
2023-04-22T23:40:11.778Z,60.10
2023-04-22T23:42:38.674Z,60.00
2023-04-22T23:45:06.149Z,60.10
2023-04-22T23:47:33.204Z,60.10
2023-04-22T23:50:00.232Z,60.10
2023-04-22T23:52:27.143Z,60.20
2023-04-22T23:54:55.092Z,60.20
2023-04-22T23:57:22.232Z,60.30
2023-04-22T23:59:49.398Z,60.30
